createdAt,value
2023-02-12T00:01:19.607Z,80.50
2023-02-12T00:03:48.280Z,80.50
2023-02-12T00:06:16.671Z,80.60
2023-02-12T00:08:45.031Z,80.70
2023-02-12T00:11:15.038Z,80.80
2023-02-12T00:13:44.148Z,80.90
2023-02-12T00:16:15.525Z,80.90
2023-02-12T00:18:45.999Z,81.00
2023-02-12T00:21:15.089Z,81.00
2023-02-12T00:23:43.458Z,80.90
2023-02-12T00:26:13.244Z,80.90
2023-02-12T00:28:42.055Z,80.80
2023-02-12T00:31:12.622Z,81.80
2023-02-12T00:33:41.333Z,82.20
2023-02-12T00:36:14.432Z,81.70
2023-02-12T00:38:43.260Z,81.90
2023-02-12T00:41:12.177Z,81.90
2023-02-12T00:43:40.575Z,82.00
2023-02-12T00:46:09.162Z,81.70
2023-02-12T00:48:38.439Z,81.70
2023-02-12T00:51:07.761Z,81.60
2023-02-12T00:53:37.755Z,81.60
2023-02-12T00:56:06.568Z,81.70
2023-02-12T00:58:34.979Z,81.80
2023-02-12T01:01:03.284Z,81.80
2023-02-12T01:03:31.595Z,81.70
2023-02-12T01:05:59.978Z,81.60
2023-02-12T01:08:28.364Z,81.70
2023-02-12T01:11:01.305Z,81.80
2023-02-12T01:13:30.497Z,81.60
2023-02-12T01:16:08.819Z,82.20
2023-02-12T01:18:37.706Z,82.20
2023-02-12T01:21:11.619Z,82.00
2023-02-12T01:23:39.995Z,82.00
2023-02-12T01:26:11.684Z,82.00
2023-02-12T01:28:40.451Z,81.90
2023-02-12T01:31:13.217Z,81.80
2023-02-12T01:33:42.340Z,81.70
2023-02-12T01:36:12.406Z,81.90
2023-02-12T01:38:40.802Z,82.00
2023-02-12T01:41:12.982Z,82.20
2023-02-12T01:43:41.541Z,82.10
2023-02-12T01:46:11.735Z,81.90
2023-02-12T01:48:43.414Z,82.00
2023-02-12T01:51:16.017Z,82.00
2023-02-12T01:53:48.338Z,81.90
2023-02-12T01:56:18.800Z,82.00
2023-02-12T01:58:49.199Z,82.10
2023-02-12T02:01:21.524Z,82.20
2023-02-12T02:03:53.582Z,82.10
2023-02-12T02:06:27.648Z,82.10
2023-02-12T02:08:57.365Z,82.00
2023-02-12T02:11:44.565Z,82.20
2023-02-12T02:14:30.165Z,82.30
2023-02-12T02:17:17.385Z,82.70
2023-02-12T02:20:11.998Z,82.50
2023-02-12T02:22:44.861Z,82.50
2023-02-12T02:25:37.566Z,82.30
2023-02-12T02:28:24.418Z,82.20
2023-02-12T02:30:59.417Z,82.20
2023-02-12T02:33:38.711Z,82.00
2023-02-12T02:36:24.871Z,82.00
2023-02-12T02:38:58.435Z,82.10
2023-02-12T02:41:32.300Z,82.20
2023-02-12T02:44:04.787Z,82.20
2023-02-12T02:46:38.522Z,83.00
2023-02-12T02:49:08.915Z,82.30
2023-02-12T02:51:41.582Z,82.20
2023-02-12T02:54:15.106Z,82.50
2023-02-12T02:56:48.832Z,82.50
2023-02-12T02:59:21.261Z,82.40
2023-02-12T03:01:56.055Z,82.50
2023-02-12T03:04:32.506Z,82.60
2023-02-12T03:07:07.348Z,82.50
2023-02-12T03:09:39.978Z,82.70
2023-02-12T03:12:14.483Z,82.60
2023-02-12T03:14:46.360Z,82.60
2023-02-12T03:17:22.033Z,82.60
2023-02-12T03:19:56.526Z,82.70
2023-02-12T03:22:29.641Z,82.70
2023-02-12T03:25:04.840Z,82.70
2023-02-12T03:27:36.174Z,82.70
2023-02-12T03:30:05.530Z,82.70
2023-02-12T03:32:44.966Z,82.60
2023-02-12T03:35:20.387Z,82.70
2023-02-12T03:37:57.175Z,82.60
2023-02-12T03:40:34.184Z,82.50
2023-02-12T03:43:08.114Z,82.60
2023-02-12T03:45:45.037Z,82.50
2023-02-12T03:48:23.526Z,82.50
2023-02-12T03:50:55.931Z,82.50
2023-02-12T03:53:24.556Z,82.30
2023-02-12T03:55:58.447Z,82.30
2023-02-12T03:58:30.651Z,82.30
2023-02-12T04:00:59.824Z,82.10
2023-02-12T04:03:30.830Z,82.10
2023-02-12T04:05:59.356Z,82.70
2023-02-12T04:08:29.682Z,82.30
2023-02-12T04:11:09.062Z,82.00
2023-02-12T04:13:46.434Z,81.90
2023-02-12T04:16:23.772Z,81.60
2023-02-12T04:18:54.698Z,81.50
2023-02-12T04:21:36.522Z,81.50
2023-02-12T04:24:12.753Z,81.40
2023-02-12T04:26:49.042Z,81.40
2023-02-12T04:29:24.683Z,82.20
2023-02-12T04:31:59.345Z,81.30
2023-02-12T04:34:34.123Z,81.20
2023-02-12T04:37:08.938Z,81.30
2023-02-12T04:39:41.018Z,81.20
2023-02-12T04:42:09.766Z,81.20
2023-02-12T04:44:43.307Z,81.10
2023-02-12T04:47:13.285Z,81.00
2023-02-12T04:49:43.494Z,80.90
2023-02-12T04:52:11.791Z,80.80
2023-02-12T04:54:40.228Z,80.80
2023-02-12T04:57:08.558Z,80.60
2023-02-12T04:59:36.858Z,80.60
2023-02-12T05:02:05.208Z,80.50
2023-02-12T05:04:33.505Z,80.40
2023-02-12T05:07:03.221Z,80.30
2023-02-12T05:09:31.589Z,80.20
2023-02-12T05:11:59.863Z,80.00
2023-02-12T05:14:28.207Z,80.00
2023-02-12T05:16:56.534Z,79.80
2023-02-12T05:19:24.813Z,80.00
2023-02-12T05:21:53.199Z,80.20
2023-02-12T05:24:22.902Z,80.00
2023-02-12T05:26:52.744Z,80.00
2023-02-12T05:29:21.544Z,79.90
2023-02-12T05:31:50.007Z,79.80
2023-02-12T05:34:18.402Z,79.60
2023-02-12T05:36:46.702Z,79.50
2023-02-12T05:39:15.022Z,79.50
2023-02-12T05:41:44.821Z,79.40
2023-02-12T05:44:15.219Z,79.60
2023-02-12T05:46:43.992Z,79.60
2023-02-12T05:49:12.658Z,79.50
2023-02-12T05:51:41.427Z,79.50
2023-02-12T05:54:10.106Z,79.50
2023-02-12T05:56:43.212Z,79.50
2023-02-12T05:59:16.966Z,79.40
2023-02-12T06:01:46.663Z,79.40
2023-02-12T06:04:18.630Z,79.30
2023-02-12T06:06:47.137Z,79.20
2023-02-12T06:09:15.697Z,79.20
2023-02-12T06:11:44.586Z,79.20
2023-02-12T06:14:16.505Z,79.20
2023-02-12T06:16:47.666Z,79.30
2023-02-12T06:19:16.134Z,79.30
2023-02-12T06:21:54.219Z,79.30
2023-02-12T06:24:22.562Z,79.30
2023-02-12T06:26:51.936Z,79.20
2023-02-12T06:29:22.300Z,79.20
2023-02-12T06:31:51.216Z,79.20
2023-02-12T06:34:19.666Z,80.00
2023-02-12T06:36:49.340Z,79.10
2023-02-12T06:39:18.287Z,79.20
2023-02-12T06:41:46.572Z,79.20
2023-02-12T06:44:14.944Z,79.20
2023-02-12T06:46:44.626Z,79.20
2023-02-12T06:49:14.311Z,79.10
2023-02-12T06:51:42.810Z,78.90
2023-02-12T06:54:15.954Z,78.90
2023-02-12T06:56:44.355Z,78.20
2023-02-12T06:59:16.422Z,78.00
2023-02-12T07:01:46.335Z,78.10
2023-02-12T07:04:14.905Z,78.10
2023-02-12T07:06:43.294Z,78.10
2023-02-12T07:09:11.587Z,78.10
2023-02-12T07:11:40.133Z,77.90
2023-02-12T07:14:08.897Z,77.70
2023-02-12T07:16:37.272Z,78.20
2023-02-12T07:19:07.002Z,76.50
2023-02-12T07:21:35.319Z,75.30
2023-02-12T07:24:22.144Z,74.70
2023-02-12T07:26:50.462Z,75.00
2023-02-12T07:29:18.761Z,74.80
2023-02-12T07:31:47.301Z,74.40
2023-02-12T07:34:17.049Z,74.90
2023-02-12T07:36:45.355Z,74.80
2023-02-12T07:39:14.244Z,73.80
2023-02-12T07:41:42.582Z,73.40
2023-02-12T07:44:13.317Z,73.30
2023-02-12T07:46:44.531Z,73.60
2023-02-12T07:49:17.679Z,73.20
2023-02-12T07:51:46.270Z,73.70
2023-02-12T07:54:15.233Z,73.60
2023-02-12T07:56:47.117Z,73.60
2023-02-12T07:59:18.085Z,73.50
2023-02-12T08:01:49.262Z,73.30
2023-02-12T08:04:20.406Z,73.00
2023-02-12T08:06:50.430Z,73.00
2023-02-12T08:09:21.398Z,72.90
2023-02-12T08:11:50.057Z,73.20
2023-02-12T08:14:20.390Z,73.60
2023-02-12T08:16:49.960Z,73.70
2023-02-12T08:19:23.957Z,73.70
2023-02-12T08:21:56.076Z,73.60
2023-02-12T08:24:25.135Z,73.60
2023-02-12T08:26:53.470Z,73.50
2023-02-12T08:29:24.277Z,73.40
2023-02-12T08:31:57.324Z,73.00
2023-02-12T08:34:28.871Z,72.50
2023-02-12T08:36:58.022Z,72.00
2023-02-12T08:39:27.920Z,71.50
2023-02-12T08:41:56.914Z,71.50
2023-02-12T08:44:25.255Z,70.70
2023-02-12T08:46:55.673Z,69.80
2023-02-12T08:49:27.878Z,68.80
2023-02-12T08:51:58.088Z,69.50
2023-02-12T08:54:28.081Z,70.10
2023-02-12T08:56:56.779Z,70.30
2023-02-12T08:59:25.451Z,70.30
2023-02-12T09:01:55.200Z,70.50
2023-02-12T09:04:28.020Z,70.80
2023-02-12T09:06:57.046Z,70.90
2023-02-12T09:09:25.550Z,70.90
2023-02-12T09:11:53.928Z,70.20
2023-02-12T09:14:24.406Z,69.70
2023-02-12T09:16:54.298Z,69.20
2023-02-12T09:19:23.368Z,69.00
2023-02-12T09:21:57.048Z,68.70
2023-02-12T09:24:26.226Z,68.60
2023-02-12T09:26:54.626Z,68.60
2023-02-12T09:29:22.956Z,68.50
2023-02-12T09:31:51.453Z,69.90
2023-02-12T09:34:19.989Z,69.10
2023-02-12T09:36:48.314Z,69.30
2023-02-12T09:39:18.127Z,68.70
2023-02-12T09:42:16.857Z,69.00
2023-02-12T09:44:51.064Z,69.10
2023-02-12T09:47:27.766Z,69.40
2023-02-12T09:50:12.115Z,69.30
2023-02-12T09:52:40.946Z,69.50
2023-02-12T09:55:15.544Z,68.90
2023-02-12T09:57:44.518Z,68.40
2023-02-12T10:00:17.864Z,68.50
2023-02-12T10:02:46.883Z,68.60
2023-02-12T10:05:19.969Z,68.40
2023-02-12T10:08:05.891Z,68.20
2023-02-12T10:10:47.875Z,68.00
2023-02-12T10:13:28.437Z,68.30
2023-02-12T10:16:07.778Z,68.30
2023-02-12T10:19:04.807Z,67.90
2023-02-12T10:21:47.994Z,67.70
2023-02-12T10:24:34.631Z,67.60
2023-02-12T10:27:12.131Z,67.60
2023-02-12T10:29:43.850Z,67.70
2023-02-12T10:32:20.885Z,67.50
2023-02-12T10:34:52.485Z,67.80
2023-02-12T10:37:32.566Z,68.10
2023-02-12T10:40:07.334Z,68.00
2023-02-12T10:42:41.743Z,67.90
2023-02-12T10:45:16.259Z,68.00
2023-02-12T10:47:45.668Z,67.70
2023-02-12T10:50:21.041Z,67.50
2023-02-12T10:52:55.064Z,67.80
2023-02-12T10:55:29.047Z,67.20
2023-02-12T10:58:00.849Z,66.80
2023-02-12T11:00:32.298Z,66.60
2023-02-12T11:03:07.132Z,66.70
2023-02-12T11:05:37.255Z,66.90
2023-02-12T11:08:06.373Z,66.00
2023-02-12T11:10:39.470Z,65.20
2023-02-12T11:13:25.388Z,65.70
2023-02-12T11:15:54.474Z,65.80
2023-02-12T11:18:26.545Z,64.00
2023-02-12T11:20:58.466Z,64.70
2023-02-12T11:23:29.452Z,64.70
2023-02-12T11:26:00.695Z,64.40
2023-02-12T11:28:31.368Z,63.80
2023-02-12T11:31:02.591Z,64.50
2023-02-12T11:33:34.722Z,63.80
2023-02-12T11:36:13.428Z,64.10
2023-02-12T11:38:51.263Z,64.50
2023-02-12T11:41:28.561Z,64.60
2023-02-12T11:43:58.584Z,65.00
2023-02-12T11:46:29.242Z,65.10
2023-02-12T11:49:00.860Z,65.40
2023-02-12T11:51:31.795Z,65.50
2023-02-12T11:54:02.347Z,65.70
2023-02-12T11:56:44.188Z,65.70
2023-02-12T11:59:26.025Z,65.40
2023-02-12T12:01:57.946Z,65.40
2023-02-12T12:04:28.181Z,64.80
2023-02-12T12:07:02.357Z,63.90
2023-02-12T12:09:38.605Z,64.40
2023-02-12T12:12:13.695Z,64.20
2023-02-12T12:15:04.822Z,64.40
2023-02-12T12:18:03.757Z,63.40
2023-02-12T12:20:38.132Z,62.10
2023-02-12T12:23:11.263Z,62.50
2023-02-12T12:25:48.409Z,62.60
2023-02-12T12:28:33.300Z,62.50
2023-02-12T12:31:09.365Z,62.80
2023-02-12T12:33:44.510Z,63.00
2023-02-12T12:36:47.565Z,62.80
2023-02-12T12:39:25.485Z,62.20
2023-02-12T12:42:34.939Z,61.70
2023-02-12T12:45:17.645Z,61.90
2023-02-12T12:48:01.534Z,61.60
2023-02-12T12:50:43.285Z,61.50
2023-02-12T12:53:30.272Z,61.40
2023-02-12T12:56:17.589Z,61.10
2023-02-12T12:59:32.094Z,61.40
2023-02-12T13:02:52.786Z,61.20
2023-02-12T13:05:52.192Z,60.70
2023-02-12T13:08:37.984Z,59.00
2023-02-12T13:11:22.424Z,59.90
2023-02-12T13:14:22.147Z,59.60
2023-02-12T13:16:56.071Z,59.90
2023-02-12T13:19:37.250Z,59.90
2023-02-12T13:22:12.151Z,60.20
2023-02-12T13:24:46.819Z,59.60
2023-02-12T13:27:19.881Z,60.70
2023-02-12T13:29:52.939Z,61.00
2023-02-12T13:32:27.120Z,61.90
2023-02-12T13:34:57.445Z,61.40
2023-02-12T13:38:01.920Z,59.60
2023-02-12T13:43:39.129Z,57.80
2023-02-12T13:46:14.475Z,56.90
2023-02-12T13:48:50.753Z,54.20
2023-02-12T13:51:30.007Z,52.30
2023-02-12T13:54:12.034Z,49.80
2023-02-12T13:56:44.007Z,49.70
2023-02-12T13:59:47.434Z,49.70
2023-02-12T14:02:52.139Z,46.70
2023-02-12T14:05:29.732Z,45.90
2023-02-12T14:08:01.958Z,44.10
2023-02-12T14:10:36.222Z,44.20
2023-02-12T14:13:18.947Z,44.90
2023-02-12T14:15:51.263Z,44.20
2023-02-12T14:18:38.157Z,44.70
2023-02-12T14:21:43.620Z,46.00
2023-02-12T14:25:00.784Z,45.60
2023-02-12T14:27:37.878Z,46.00
2023-02-12T14:30:30.620Z,46.90
2023-02-12T14:33:15.191Z,47.70
2023-02-12T14:35:44.602Z,48.20
2023-02-12T14:39:04.133Z,48.50
2023-02-12T14:41:44.401Z,49.20
2023-02-12T14:44:47.762Z,49.60
2023-02-12T14:47:32.139Z,50.20
2023-02-12T14:50:04.923Z,50.60
2023-02-12T14:52:39.437Z,51.10
2023-02-12T14:55:20.168Z,51.60
2023-02-12T14:57:49.123Z,52.10
2023-02-12T15:00:29.681Z,52.50
2023-02-12T15:03:04.046Z,52.90
2023-02-12T15:05:38.169Z,53.20
2023-02-12T15:08:12.810Z,53.60
2023-02-12T15:10:47.485Z,53.80
2023-02-12T15:13:25.460Z,54.10
2023-02-12T15:16:03.676Z,54.50
2023-02-12T15:18:49.872Z,54.90
2023-02-12T15:21:22.987Z,55.20
2023-02-12T15:24:02.458Z,55.40
2023-02-12T15:26:33.467Z,55.60
2023-02-12T15:29:02.534Z,55.70
2023-02-12T15:31:33.851Z,56.00
2023-02-12T15:34:05.981Z,56.20
2023-02-12T15:36:35.354Z,56.40
2023-02-12T15:39:06.453Z,56.60
2023-02-12T15:41:40.341Z,56.90
2023-02-12T15:44:26.342Z,57.10
2023-02-12T15:46:58.444Z,57.10
2023-02-12T15:49:29.792Z,57.60
2023-02-12T15:51:59.065Z,57.70
2023-02-12T15:54:28.647Z,57.80
2023-02-12T15:56:58.486Z,57.90
2023-02-12T15:59:29.299Z,58.30
2023-02-12T16:02:03.715Z,58.50
2023-02-12T16:04:36.592Z,58.50
2023-02-12T16:07:05.086Z,58.60
2023-02-12T16:13:19.052Z,58.80
2023-02-12T16:15:47.494Z,58.90
2023-02-12T16:18:26.940Z,59.20
2023-02-12T16:21:07.873Z,59.20
2023-02-12T16:23:37.315Z,59.40
2023-02-12T16:26:06.479Z,59.50
2023-02-12T16:28:35.086Z,59.70
2023-02-12T16:31:12.565Z,59.80
2023-02-12T16:33:49.699Z,60.00
2023-02-12T16:36:54.255Z,60.30
2023-02-12T16:40:09.652Z,60.40
2023-02-12T16:42:41.107Z,60.70
2023-02-12T16:45:35.436Z,60.90
2023-02-12T16:48:08.567Z,61.20
2023-02-12T16:57:24.937Z,61.90
2023-02-12T16:59:53.277Z,62.10
2023-02-12T17:02:21.683Z,62.30
2023-02-12T17:04:50.124Z,62.70
2023-02-12T17:07:23.474Z,62.90
2023-02-12T17:09:51.902Z,63.00
2023-02-12T17:12:20.585Z,63.20
2023-02-12T17:14:48.991Z,65.30
2023-02-12T17:17:17.513Z,64.60
2023-02-12T17:19:46.074Z,64.50
2023-02-12T17:22:23.209Z,65.40
2023-02-12T17:24:53.461Z,64.60
2023-02-12T17:27:22.104Z,64.80
2023-02-12T17:29:50.666Z,64.90
2023-02-12T17:32:19.130Z,65.10
2023-02-12T17:34:49.140Z,65.20
2023-02-12T17:37:18.490Z,65.50
2023-02-12T17:39:48.466Z,65.60
2023-02-12T17:42:16.916Z,65.60
2023-02-12T17:44:45.444Z,65.90
2023-02-12T17:47:13.939Z,66.10
2023-02-12T17:49:42.818Z,66.30
2023-02-12T17:52:11.422Z,66.50
2023-02-12T17:54:40.029Z,66.70
2023-02-12T17:57:13.013Z,66.80
2023-02-12T17:59:42.562Z,66.90
2023-02-12T18:02:12.515Z,67.10
2023-02-12T18:04:41.050Z,67.30
2023-02-12T18:07:09.570Z,67.60
2023-02-12T18:09:39.716Z,67.90
2023-02-12T18:12:10.302Z,68.00
2023-02-12T18:14:38.963Z,68.20
2023-02-12T18:17:07.410Z,68.30
2023-02-12T18:19:36.035Z,68.50
2023-02-12T18:22:04.545Z,69.70
2023-02-12T18:24:34.654Z,70.00
2023-02-12T18:27:03.285Z,69.90
2023-02-12T18:29:34.446Z,70.00
2023-02-12T18:32:02.835Z,70.10
2023-02-12T18:34:31.382Z,70.00
2023-02-12T18:37:00.015Z,70.20
2023-02-12T18:39:29.322Z,70.70
2023-02-12T18:41:57.794Z,71.00
2023-02-12T18:44:26.310Z,71.10
2023-02-12T18:46:57.484Z,71.40
2023-02-12T18:49:26.029Z,71.30
2023-02-12T18:51:54.780Z,71.60
2023-02-12T18:54:23.294Z,71.60
2023-02-12T18:56:53.555Z,71.70
2023-02-12T18:59:22.654Z,71.70
2023-02-12T19:01:51.892Z,71.90
2023-02-12T19:04:23.989Z,72.90
2023-02-12T19:06:54.853Z,72.90
2023-02-12T19:09:26.094Z,72.70
2023-02-12T19:11:56.500Z,72.60
2023-02-12T19:14:26.179Z,72.50
2023-02-12T19:16:55.372Z,72.50
2023-02-12T19:19:25.618Z,72.30
2023-02-12T19:21:54.144Z,72.50
2023-02-12T19:24:22.609Z,72.50
2023-02-12T19:26:53.768Z,72.60
2023-02-12T19:29:22.597Z,72.70
2023-02-12T19:31:51.122Z,72.70
2023-02-12T19:34:21.349Z,72.70
2023-02-12T19:36:51.644Z,72.70
2023-02-12T19:39:22.063Z,72.70
2023-02-12T19:41:50.975Z,72.70
2023-02-12T19:44:21.179Z,72.70
2023-02-12T19:46:50.351Z,72.70
2023-02-12T19:49:20.473Z,72.70
2023-02-12T19:51:51.052Z,72.70
2023-02-12T19:54:21.789Z,74.10
2023-02-12T19:56:50.932Z,74.40
2023-02-12T19:59:22.073Z,74.50
2023-02-12T20:01:50.731Z,74.40
2023-02-12T20:04:23.149Z,74.20
2023-02-12T20:06:53.013Z,74.20
2023-02-12T20:09:22.304Z,74.20
2023-02-12T20:11:50.931Z,74.40
2023-02-12T20:14:21.043Z,74.50
2023-02-12T20:16:50.212Z,74.80
2023-02-12T20:19:21.619Z,75.30
2023-02-12T20:21:55.272Z,75.30
2023-02-12T20:24:26.936Z,75.30
2023-02-12T20:26:55.531Z,75.20
2023-02-12T20:29:24.470Z,75.40
2023-02-12T20:31:53.184Z,75.70
2023-02-12T20:34:22.853Z,76.10
2023-02-12T20:36:51.768Z,76.10
2023-02-12T20:39:22.162Z,75.90
2023-02-12T20:41:52.969Z,76.20
2023-02-12T20:44:22.944Z,76.50
2023-02-12T20:46:56.449Z,76.40
2023-02-12T20:49:27.566Z,76.80
2023-02-12T20:51:56.144Z,76.90
2023-02-12T20:54:25.107Z,76.70
2023-02-12T20:56:54.946Z,76.90
2023-02-12T20:59:23.423Z,76.90
2023-02-12T21:01:52.008Z,77.20
2023-02-12T21:04:21.246Z,77.40
2023-02-12T21:06:49.704Z,77.20
2023-02-12T21:09:18.880Z,76.90
2023-02-12T21:11:47.791Z,76.80
2023-02-12T21:14:22.216Z,76.60
2023-02-12T21:16:52.032Z,76.90
2023-02-12T21:19:20.413Z,77.20
2023-02-12T21:21:49.146Z,77.20
2023-02-12T21:24:20.361Z,77.20
2023-02-12T21:26:49.097Z,77.40
2023-02-12T21:29:19.301Z,77.90
2023-02-12T21:31:49.980Z,77.90
2023-02-12T21:34:21.237Z,77.80
2023-02-12T21:36:50.795Z,77.50
2023-02-12T21:39:25.266Z,77.40
2023-02-12T21:41:55.901Z,77.20
2023-02-12T21:44:26.989Z,77.10
2023-02-12T21:46:55.962Z,77.00
2023-02-12T21:49:27.858Z,76.90
2023-02-12T21:51:58.507Z,76.80
2023-02-12T21:54:27.395Z,76.80
2023-02-12T21:56:56.279Z,76.70
2023-02-12T21:59:26.663Z,76.60
2023-02-12T22:01:58.452Z,77.40
2023-02-12T22:04:27.426Z,76.50
2023-02-12T22:06:56.668Z,76.50
2023-02-12T22:09:25.147Z,76.40
2023-02-12T22:11:53.698Z,76.40
2023-02-12T22:14:23.093Z,76.40
2023-02-12T22:16:53.043Z,77.20
2023-02-12T22:19:21.289Z,77.10
2023-02-12T22:21:52.096Z,77.00
2023-02-12T22:24:20.437Z,76.90
2023-02-12T22:26:48.690Z,76.70
2023-02-12T22:29:18.034Z,76.70
2023-02-12T22:31:47.958Z,76.60
2023-02-12T22:34:19.253Z,76.60
2023-02-12T22:36:48.150Z,76.60
2023-02-12T22:39:17.579Z,76.50
2023-02-12T22:41:46.158Z,76.60
2023-02-12T22:44:15.829Z,76.50
2023-02-12T22:46:44.412Z,76.40
2023-02-12T22:49:12.929Z,76.40
2023-02-12T22:51:42.607Z,76.50
2023-02-12T22:54:14.891Z,76.50
2023-02-12T22:56:43.509Z,76.60
2023-02-12T22:59:13.110Z,76.60
2023-02-12T23:01:41.802Z,76.60
2023-02-12T23:04:15.222Z,76.60
2023-02-12T23:06:45.273Z,76.70
2023-02-12T23:09:16.871Z,76.60
2023-02-12T23:11:45.218Z,76.60
2023-02-12T23:14:13.782Z,76.70
2023-02-12T23:16:42.214Z,76.70
2023-02-12T23:19:11.465Z,76.70
2023-02-12T23:21:39.777Z,76.90
2023-02-12T23:24:11.542Z,76.70
2023-02-12T23:26:39.780Z,76.70
2023-02-12T23:29:08.178Z,76.70
2023-02-12T23:31:36.500Z,76.70
2023-02-12T23:34:05.232Z,76.70
2023-02-12T23:36:33.526Z,76.70
2023-02-12T23:39:01.778Z,76.60
2023-02-12T23:41:31.459Z,76.60
2023-02-12T23:43:59.728Z,76.60
2023-02-12T23:46:28.053Z,76.60
2023-02-12T23:48:56.425Z,76.50
2023-02-12T23:51:24.764Z,76.40
2023-02-12T23:53:53.054Z,76.50
2023-02-12T23:56:21.393Z,76.40
2023-02-12T23:58:51.051Z,76.40
